Gnv Atlas — IBUH — position and weather

sailwx.info

Track history (hours):
 
Tides and Currents Weather Stations Pressure Air Temp Water Temp Dewpoint Dewpoint Depression Visibility Wind Speed Wind Dir Waves Ship Positions

Gnv Atlas

Last reported at 2018-Feb-22 05:01 UTC. Time now 2018-Feb-22 05:14 UTC.
Position N 41°22' E 002°11'.

Length 162 m; draft 6.2 m.

Type: Passenger vessel. MMSI: 247163100.

Date/timePositionNaut miles runAvg speedWind from/ knotsBaromVisibWave heightAir tempDewpointWater temp
2018-Feb-22 05:01N 41°22' E 002°11'2 4.4
2018-Feb-22 04:31N 41°20' E 002°10'4 7.6
2018-Feb-22 04:01N 41°17' E 002°13'815.0
2018-Feb-22 03:30N 41°21' E 002°21'  
2018-Feb-19 23:06N 37°45' W 000°21'220.0
2018-Feb-19 23:00N 37°43' W 000°22'1019.9
2018-Feb-19 22:30N 37°35' W 000°29'1719.4
2018-Feb-19 21:38N 37°22' W 000°43'319.0
2018-Feb-19 21:30N 37°20' W 000°45'918.8
2018-Feb-19 21:00N 37°13' W 000°52'8 0.3
2018-Feb-18 21:03N 37°09' W 001°01'118.2
2018-Feb-18 21:00N 37°09' W 000°60'918.3
2018-Feb-18 20:30N 37°17' W 000°53'815.6
2018-Feb-18 20:01N 37°23' W 000°48'816.4
2018-Feb-18 19:31N 37°29' W 000°40'815.9
2018-Feb-18 19:00N 37°35' W 000°34'815.5
2018-Feb-18 18:31N 37°41' W 000°28'1015.3
2018-Feb-18 17:53N 37°49' W 000°22'715.3
2018-Feb-18 17:25N 37°55' W 000°17'42 0.9
2018-Feb-16 17:44N 38°28' E 000°17'1918.6
2018-Feb-16 16:42N 38°12' E 000°03'418.8
2018-Feb-16 16:30N 38°09' W 000°00'919.0
2018-Feb-16 16:00N 38°01' W 000°08'1019.4
2018-Feb-16 15:30N 37°54' W 000°15'1019.7
2018-Feb-16 15:00N 37°45' W 000°21'1019.6
2018-Feb-16 14:31N 37°37' W 000°28'1019.2
2018-Feb-16 14:01N 37°30' W 000°36'918.7
2018-Feb-16 13:30N 37°23' W 000°44'918.7
2018-Feb-16 13:00N 37°17' W 000°53'23611.4
2018-Feb-15 16:14N 35°58' W 005°29'314.9
2018-Feb-15 16:00N 36°00' W 005°26'815.6
2018-Feb-15 15:30N 36°02' W 005°17'21317.7
2018-Feb-15 03:26N 37°12' W 001°06'918.8
2018-Feb-15 02:58N 37°18' W 000°58'919.0
2018-Feb-15 02:30N 37°24' W 000°49'918.5
2018-Feb-15 02:00N 37°30' W 000°41'917.9
2018-Feb-15 01:30N 37°36' W 000°33'917.7
2018-Feb-15 01:00N 37°44' W 000°26'1117.6
2018-Feb-15 00:23N 37°52' W 000°18'717.8
2018-Feb-14 23:59N 37°58' W 000°14'20518.4
2018-Feb-14 12:51N 40°57' E 001°56'619.0
2018-Feb-14 12:31N 41°02' E 002°00'918.8
2018-Feb-14 12:00N 41°11' E 002°06'917.3
2018-Feb-14 11:30N 41°19' E 002°10'3 5.9
2018-Feb-14 10:59N 41°22' E 002°11'0 0.0
2018-Feb-14 10:26N 41°22' E 002°11'0 0.0
2018-Feb-14 09:59N 41°22' E 002°11'0 0.0
2018-Feb-14 09:26N 41°22' E 002°11'0 0.0
2018-Feb-14 08:59N 41°22' E 002°11'0 0.0
2018-Feb-14 08:29N 41°22' E 002°11'0 0.0
2018-Feb-14 07:56N 41°22' E 002°11'0 0.0
2018-Feb-14 07:26N 41°22' E 002°11'0 0.0
2018-Feb-14 07:00N 41°22' E 002°11'0 0.0
2018-Feb-14 06:30N 41°22' E 002°11'1 1.9
2018-Feb-14 06:00N 41°21' E 002°10'4 7.3
2018-Feb-14 05:30N 41°17' E 002°11'1 2.7
2018-Feb-14 05:00N 41°16' E 002°12'0 0.9
2018-Feb-14 04:30N 41°16' E 002°12'611.3
2018-Feb-14 04:00N 41°19' E 002°18'816.1
2018-Feb-14 03:30N 41°22' E 002°28'  
Track history (hours):
 
Tides and Currents Weather Stations Pressure Air Temp Water Temp Dewpoint Dewpoint Depression Visibility Wind Speed Wind Dir Waves Ship Positions

Gnv Atlas

Last reported at 2018-Feb-22 05:01 UTC. Time now 2018-Feb-22 05:14 UTC.
Position N 41°22' E 002°11'.

Length 162 m; draft 6.2 m.

Type: Passenger vessel. MMSI: 247163100.

Date/timePositionNaut miles runAvg speedWind from/ knotsBaromVisibWave heightAir tempDewpointWater temp
2018-Feb-22 05:01N 41°22' E 002°11'2 4.4
2018-Feb-22 04:31N 41°20' E 002°10'4 7.6
2018-Feb-22 04:01N 41°17' E 002°13'815.0
2018-Feb-22 03:30N 41°21' E 002°21'  
2018-Feb-19 23:06N 37°45' W 000°21'220.0
2018-Feb-19 23:00N 37°43' W 000°22'1019.9
2018-Feb-19 22:30N 37°35' W 000°29'1719.4
2018-Feb-19 21:38N 37°22' W 000°43'319.0
2018-Feb-19 21:30N 37°20' W 000°45'918.8
2018-Feb-19 21:00N 37°13' W 000°52'8 0.3
2018-Feb-18 21:03N 37°09' W 001°01'118.2
2018-Feb-18 21:00N 37°09' W 000°60'918.3
2018-Feb-18 20:30N 37°17' W 000°53'815.6
2018-Feb-18 20:01N 37°23' W 000°48'816.4
2018-Feb-18 19:31N 37°29' W 000°40'815.9
2018-Feb-18 19:00N 37°35' W 000°34'815.5
2018-Feb-18 18:31N 37°41' W 000°28'1015.3
2018-Feb-18 17:53N 37°49' W 000°22'715.3
2018-Feb-18 17:25N 37°55' W 000°17'42 0.9
2018-Feb-16 17:44N 38°28' E 000°17'1918.6
2018-Feb-16 16:42N 38°12' E 000°03'418.8
2018-Feb-16 16:30N 38°09' W 000°00'919.0
2018-Feb-16 16:00N 38°01' W 000°08'1019.4
2018-Feb-16 15:30N 37°54' W 000°15'1019.7
2018-Feb-16 15:00N 37°45' W 000°21'1019.6
2018-Feb-16 14:31N 37°37' W 000°28'1019.2
2018-Feb-16 14:01N 37°30' W 000°36'918.7
2018-Feb-16 13:30N 37°23' W 000°44'918.7
2018-Feb-16 13:00N 37°17' W 000°53'23611.4
2018-Feb-15 16:14N 35°58' W 005°29'314.9
2018-Feb-15 16:00N 36°00' W 005°26'815.6
2018-Feb-15 15:30N 36°02' W 005°17'21317.7
2018-Feb-15 03:26N 37°12' W 001°06'918.8
2018-Feb-15 02:58N 37°18' W 000°58'919.0
2018-Feb-15 02:30N 37°24' W 000°49'918.5
2018-Feb-15 02:00N 37°30' W 000°41'917.9
2018-Feb-15 01:30N 37°36' W 000°33'917.7
2018-Feb-15 01:00N 37°44' W 000°26'1117.6
2018-Feb-15 00:23N 37°52' W 000°18'717.8
2018-Feb-14 23:59N 37°58' W 000°14'20518.4
2018-Feb-14 12:51N 40°57' E 001°56'619.0
2018-Feb-14 12:31N 41°02' E 002°00'918.8
2018-Feb-14 12:00N 41°11' E 002°06'917.3
2018-Feb-14 11:30N 41°19' E 002°10'3 5.9
2018-Feb-14 10:59N 41°22' E 002°11'0 0.0
2018-Feb-14 10:26N 41°22' E 002°11'0 0.0
2018-Feb-14 09:59N 41°22' E 002°11'0 0.0
2018-Feb-14 09:26N 41°22' E 002°11'0 0.0
2018-Feb-14 08:59N 41°22' E 002°11'0 0.0
2018-Feb-14 08:29N 41°22' E 002°11'0 0.0
2018-Feb-14 07:56N 41°22' E 002°11'0 0.0
2018-Feb-14 07:26N 41°22' E 002°11'0 0.0
2018-Feb-14 07:00N 41°22' E 002°11'0 0.0
2018-Feb-14 06:30N 41°22' E 002°11'1 1.9
2018-Feb-14 06:00N 41°21' E 002°10'4 7.3
2018-Feb-14 05:30N 41°17' E 002°11'1 2.7
2018-Feb-14 05:00N 41°16' E 002°12'0 0.9
2018-Feb-14 04:30N 41°16' E 002°12'611.3
2018-Feb-14 04:00N 41°19' E 002°18'816.1
2018-Feb-14 03:30N 41°22' E 002°28'  

Dump ship's entire track history